CPG6 weather

Port Elgin (Pryde Field) Airport
Port Elgin, Ontario, Canada

Public forecast

Using degrees Celsius for public forecast. Weather courtesy of forecast.io.

METAR (pilot weather report)

Closest report is Wiarton Airport, 20.8 nm (38.5 km) NE. Retrieved 2019/07/23 19:00 UTC (52 minutes ago):

CYVV 231900Z 27005KT 15SM FEW040 BKN250 23/11 A2996 RMK CU1CI4 WND ESTD SLP145 DENSITY ALT 1800FT

TAF (pilot weather forecast)

Closest forecast is Wiarton Airport, 20.8 nm (38.5 km) NE. Retrieved 2019/07/23 20:00 UTC (0 seconds ago):

TAF CYVV 231938Z 2320/2323 36008KT P6SM SCT100 BECMG 2320/2322 31008KT RMK NXT FCST WILL BE ISSUED AT 241045Z